Terminal Aerodrome Forecast
Issued by NWS Milwaukee/Sullivan, WI

Home | Current Version | Previous Version | Text Only | Print | Product List | Glossary On
Versions: 1 2 3 4 5 6 7 8 9 10 11 12 13 14 15 16 17 18 19 20 21 22 23 24 25 26 27 28 29 30
000
FTUS43 KMKX 200943 AAA
TAFMSN
TAF AMD
KMSN 200943Z 2010/2106 07006KT 6SM -DZ BR OVC005
      TEMPO 2010/2012 1SM -DZ BR OVC004
     FM201200 00000KT 1/2SM -DZ FG OVC003
     FM201700 VRB03KT 3/4SM -DZ BR OVC003=

USA.gov is the U.S. government's official web portal to all federal, state and local government web resources and services.